sensor_id;sensor_type;location;lat;lon;timestamp;pressure;altitude;pressure_sealevel;temperature;humidity
7109;BME280;29079;41.930;25.558;2023-04-08T00:00:22;99867.19;;;8.30;86.00
7109;BME280;29079;41.930;25.558;2023-04-08T00:02:56;99861.63;;;8.09;86.81
7109;BME280;29079;41.930;25.558;2023-04-08T00:05:29;99862.72;;;8.54;82.48
7109;BME280;29079;41.930;25.558;2023-04-08T00:08:02;99857.25;;;8.21;85.87
7109;BME280;29079;41.930;25.558;2023-04-08T00:10:37;99854.28;;;8.12;85.74
7109;BME280;29079;41.930;25.558;2023-04-08T00:13:12;99861.81;;;8.43;83.63
7109;BME280;29079;41.930;25.558;2023-04-08T00:15:45;99858.97;;;8.09;87.45
7109;BME280;29079;41.930;25.558;2023-04-08T00:18:21;99858.50;;;7.91;88.39
7109;BME280;29079;41.930;25.558;2023-04-08T00:20:54;99857.19;;;7.59;90.85
7109;BME280;29079;41.930;25.558;2023-04-08T00:23:28;99864.00;;;8.25;85.61
7109;BME280;29079;41.930;25.558;2023-04-08T00:26:02;99851.34;;;8.28;85.68
7109;BME280;29079;41.930;25.558;2023-04-08T00:28:35;99855.97;;;8.37;85.35
7109;BME280;29079;41.930;25.558;2023-04-08T00:31:08;99851.81;;;8.46;84.28
7109;BME280;29079;41.930;25.558;2023-04-08T00:33:41;99855.63;;;8.42;83.06
7109;BME280;29079;41.930;25.558;2023-04-08T00:36:14;99864.06;;;8.36;84.34
7109;BME280;29079;41.930;25.558;2023-04-08T00:38:48;99862.25;;;8.12;86.01
7109;BME280;29079;41.930;25.558;2023-04-08T00:41:23;99869.56;;;7.97;88.50
7109;BME280;29079;41.930;25.558;2023-04-08T00:43:56;99874.34;;;7.42;93.68
7109;BME280;29079;41.930;25.558;2023-04-08T00:46:29;99884.13;;;7.92;89.09
7109;BME280;29079;41.930;25.558;2023-04-08T00:49:03;99875.94;;;7.95;88.73
7109;BME280;29079;41.930;25.558;2023-04-08T00:51:36;99875.47;;;8.01;87.82
7109;BME280;29079;41.930;25.558;2023-04-08T00:54:09;99876.66;;;7.60;92.31
7109;BME280;29079;41.930;25.558;2023-04-08T00:56:44;99885.81;;;7.30;95.51
7109;BME280;29079;41.930;25.558;2023-04-08T00:59:17;99880.72;;;7.27;95.32
7109;BME280;29079;41.930;25.558;2023-04-08T01:01:53;99882.97;;;7.83;90.57
7109;BME280;29079;41.930;25.558;2023-04-08T01:04:29;99883.56;;;7.62;93.35
7109;BME280;29079;41.930;25.558;2023-04-08T01:07:06;99889.63;;;7.00;97.34
7109;BME280;29079;41.930;25.558;2023-04-08T01:09:44;99884.81;;;6.67;100.00
7109;BME280;29079;41.930;25.558;2023-04-08T01:12:21;99885.91;;;7.28;96.73
7109;BME280;29079;41.930;25.558;2023-04-08T01:14:59;99889.28;;;7.69;93.28
7109;BME280;29079;41.930;25.558;2023-04-08T01:17:34;99897.09;;;7.83;91.19
7109;BME280;29079;41.930;25.558;2023-04-08T01:20:08;99897.00;;;6.82;99.22
7109;BME280;29079;41.930;25.558;2023-04-08T01:22:48;99896.63;;;7.01;99.22
7109;BME280;29079;41.930;25.558;2023-04-08T01:25:26;99890.47;;;7.01;99.88
7109;BME280;29079;41.930;25.558;2023-04-08T01:28:04;99893.31;;;7.36;94.54
7109;BME280;29079;41.930;25.558;2023-04-08T01:30:37;99896.41;;;7.43;95.68
7109;BME280;29079;41.930;25.558;2023-04-08T01:33:11;99897.91;;;7.60;92.63
7109;BME280;29079;41.930;25.558;2023-04-08T01:35:45;99898.75;;;7.22;96.82
7109;BME280;29079;41.930;25.558;2023-04-08T01:38:19;99898.66;;;6.57;100.00
7109;BME280;29079;41.930;25.558;2023-04-08T01:40:52;99888.81;;;6.59;100.00
7109;BME280;29079;41.930;25.558;2023-04-08T01:43:28;99888.06;;;7.23;97.60
7109;BME280;29079;41.930;25.558;2023-04-08T01:46:02;99892.81;;;7.05;99.08
7109;BME280;29079;41.930;25.558;2023-04-08T01:48:37;99894.81;;;6.89;100.00
7109;BME280;29079;41.930;25.558;2023-04-08T01:51:12;99897.38;;;7.42;95.14
7109;BME280;29079;41.930;25.558;2023-04-08T01:53:45;99889.50;;;6.89;99.91
7109;BME280;29079;41.930;25.558;2023-04-08T01:56:19;99902.59;;;6.37;100.00
7109;BME280;29079;41.930;25.558;2023-04-08T01:58:54;99902.28;;;6.69;100.00
7109;BME280;29079;41.930;25.558;2023-04-08T02:01:30;99910.56;;;7.30;96.47
7109;BME280;29079;41.930;25.558;2023-04-08T02:04:04;99912.47;;;7.28;97.26
7109;BME280;29079;41.930;25.558;2023-04-08T02:06:37;99916.38;;;7.48;94.22
7109;BME280;29079;41.930;25.558;2023-04-08T02:09:11;99912.56;;;7.53;94.71
7109;BME280;29079;41.930;25.558;2023-04-08T02:11:44;99908.91;;;7.66;93.28
7109;BME280;29079;41.930;25.558;2023-04-08T02:14:19;99914.22;;;7.66;94.03
7109;BME280;29079;41.930;25.558;2023-04-08T02:16:54;99914.91;;;7.44;95.38
7109;BME280;29079;41.930;25.558;2023-04-08T02:19:35;99914.22;;;6.89;100.00
7109;BME280;29079;41.930;25.558;2023-04-08T02:22:10;99912.13;;;7.07;98.93
7109;BME280;29079;41.930;25.558;2023-04-08T02:24:44;99912.22;;;6.93;100.00
7109;BME280;29079;41.930;25.558;2023-04-08T02:27:18;99909.81;;;7.28;97.15
7109;BME280;29079;41.930;25.558;2023-04-08T02:29:53;99912.91;;;7.48;96.31
7109;BME280;29079;41.930;25.558;2023-04-08T02:32:29;99917.44;;;7.72;92.47
7109;BME280;29079;41.930;25.558;2023-04-08T02:35:03;99917.78;;;7.41;96.13
7109;BME280;29079;41.930;25.558;2023-04-08T02:37:37;99915.09;;;7.67;93.42
7109;BME280;29079;41.930;25.558;2023-04-08T02:40:23;99915.56;;;7.35;96.84
7109;BME280;29079;41.930;25.558;2023-04-08T02:42:56;99910.84;;;7.64;92.77
7109;BME280;29079;41.930;25.558;2023-04-08T02:45:32;99904.28;;;7.57;94.79
7109;BME280;29079;41.930;25.558;2023-04-08T02:48:05;99914.69;;;7.47;94.19
7109;BME280;29079;41.930;25.558;2023-04-08T02:50:38;99917.88;;;7.53;94.92
7109;BME280;29079;41.930;25.558;2023-04-08T02:53:11;99919.25;;;7.71;92.96
7109;BME280;29079;41.930;25.558;2023-04-08T02:55:44;99924.25;;;7.24;96.07
7109;BME280;29079;41.930;25.558;2023-04-08T02:58:17;99929.22;;;6.63;100.00
7109;BME280;29079;41.930;25.558;2023-04-08T03:00:52;99920.22;;;6.66;100.00
7109;BME280;29079;41.930;25.558;2023-04-08T03:03:25;99928.53;;;6.47;100.00
7109;BME280;29079;41.930;25.558;2023-04-08T03:06:00;99925.06;;;6.59;100.00
7109;BME280;29079;41.930;25.558;2023-04-08T03:08:33;99930.41;;;6.44;100.00
7109;BME280;29079;41.930;25.558;2023-04-08T03:11:06;99932.41;;;6.14;100.00
7109;BME280;29079;41.930;25.558;2023-04-08T03:13:41;99938.09;;;6.07;100.00
7109;BME280;29079;41.930;25.558;2023-04-08T03:16:16;99941.75;;;6.34;100.00
7109;BME280;29079;41.930;25.558;2023-04-08T03:18:49;99929.44;;;6.60;100.00
7109;BME280;29079;41.930;25.558;2023-04-08T03:21:23;99931.56;;;6.68;100.00
7109;BME280;29079;41.930;25.558;2023-04-08T03:23:58;99926.19;;;6.42;100.00
7109;BME280;29079;41.930;25.558;2023-04-08T03:26:31;99933.06;;;6.44;100.00
7109;BME280;29079;41.930;25.558;2023-04-08T03:29:04;99936.75;;;6.29;100.00
7109;BME280;29079;41.930;25.558;2023-04-08T03:31:40;99938.09;;;6.49;100.00
7109;BME280;29079;41.930;25.558;2023-04-08T03:34:13;99934.88;;;6.17;100.00
7109;BME280;29079;41.930;25.558;2023-04-08T03:36:46;99942.09;;;6.00;100.00
7109;BME280;29079;41.930;25.558;2023-04-08T03:39:19;99942.25;;;6.26;100.00
7109;BME280;29079;41.930;25.558;2023-04-08T03:41:52;99957.03;;;6.70;100.00
7109;BME280;29079;41.930;25.558;2023-04-08T03:44:25;99953.13;;;6.76;100.00
7109;BME280;29079;41.930;25.558;2023-04-08T03:47:00;99949.81;;;6.72;100.00
7109;BME280;29079;41.930;25.558;2023-04-08T03:49:33;99952.63;;;6.56;100.00
7109;BME280;29079;41.930;25.558;2023-04-08T03:52:06;99950.78;;;6.44;100.00
7109;BME280;29079;41.930;25.558;2023-04-08T03:54:39;99950.91;;;6.42;100.00
7109;BME280;29079;41.930;25.558;2023-04-08T03:57:12;99949.28;;;6.67;100.00
7109;BME280;29079;41.930;25.558;2023-04-08T03:59:47;99963.00;;;6.74;100.00
7109;BME280;29079;41.930;25.558;2023-04-08T04:02:21;99949.44;;;6.78;99.84
7109;BME280;29079;41.930;25.558;2023-04-08T04:04:55;99952.91;;;7.19;97.20
7109;BME280;29079;41.930;25.558;2023-04-08T04:07:28;99947.16;;;6.59;100.00
7109;BME280;29079;41.930;25.558;2023-04-08T04:10:01;99951.41;;;6.35;100.00
7109;BME280;29079;41.930;25.558;2023-04-08T04:12:34;99952.78;;;6.40;100.00
7109;BME280;29079;41.930;25.558;2023-04-08T04:15:09;99951.84;;;6.69;100.00
7109;BME280;29079;41.930;25.558;2023-04-08T04:17:46;99954.56;;;6.94;97.85
7109;BME280;29079;41.930;25.558;2023-04-08T04:20:19;99951.84;;;7.09;98.29
7109;BME280;29079;41.930;25.558;2023-04-08T04:22:52;99949.72;;;7.14;97.93
7109;BME280;29079;41.930;25.558;2023-04-08T04:25:26;99954.50;;;7.22;96.72
7109;BME280;29079;41.930;25.558;2023-04-08T04:27:59;99953.78;;;6.79;99.52
7109;BME280;29079;41.930;25.558;2023-04-08T04:30:35;99962.44;;;6.69;100.00
7109;BME280;29079;41.930;25.558;2023-04-08T04:33:09;99963.84;;;6.74;99.56
7109;BME280;29079;41.930;25.558;2023-04-08T04:35:42;99969.06;;;6.76;100.00
7109;BME280;29079;41.930;25.558;2023-04-08T04:38:15;99968.81;;;6.66;100.00
7109;BME280;29079;41.930;25.558;2023-04-08T04:40:48;99974.09;;;6.93;98.48
7109;BME280;29079;41.930;25.558;2023-04-08T04:43:22;99976.00;;;7.04;97.39
7109;BME280;29079;41.930;25.558;2023-04-08T04:45:55;99981.06;;;6.82;97.89
7109;BME280;29079;41.930;25.558;2023-04-08T04:48:30;99983.31;;;7.41;93.61
7109;BME280;29079;41.930;25.558;2023-04-08T04:51:03;99980.44;;;7.31;94.03
7109;BME280;29079;41.930;25.558;2023-04-08T04:53:38;99980.72;;;7.13;96.48
7109;BME280;29079;41.930;25.558;2023-04-08T04:56:11;99988.38;;;7.18;95.43
7109;BME280;29079;41.930;25.558;2023-04-08T04:58:44;99993.72;;;7.44;91.91
7109;BME280;29079;41.930;25.558;2023-04-08T05:01:17;99985.88;;;7.55;92.36
7109;BME280;29079;41.930;25.558;2023-04-08T05:03:51;99995.53;;;6.90;94.45
7109;BME280;29079;41.930;25.558;2023-04-08T05:06:24;99992.34;;;6.58;97.62
7109;BME280;29079;41.930;25.558;2023-04-08T05:08:59;99997.44;;;7.01;94.76
7109;BME280;29079;41.930;25.558;2023-04-08T05:11:32;99991.78;;;6.80;95.51
7109;BME280;29079;41.930;25.558;2023-04-08T05:14:06;99991.22;;;6.75;97.46
7109;BME280;29079;41.930;25.558;2023-04-08T05:16:40;99983.44;;;6.99;95.85
7109;BME280;29079;41.930;25.558;2023-04-08T05:19:14;99988.38;;;7.18;95.08
7109;BME280;29079;41.930;25.558;2023-04-08T05:21:47;99978.19;;;6.85;96.38
7109;BME280;29079;41.930;25.558;2023-04-08T05:24:20;99972.00;;;7.11;96.12
7109;BME280;29079;41.930;25.558;2023-04-08T05:26:54;99975.38;;;7.01;95.67
7109;BME280;29079;41.930;25.558;2023-04-08T05:29:28;99975.59;;;6.97;95.67
7109;BME280;29079;41.930;25.558;2023-04-08T05:32:01;99977.66;;;7.20;94.53
7109;BME280;29079;41.930;25.558;2023-04-08T05:34:36;99975.28;;;7.02;96.64
7109;BME280;29079;41.930;25.558;2023-04-08T05:37:09;99974.50;;;6.87;97.58
7109;BME280;29079;41.930;25.558;2023-04-08T05:39:42;99985.06;;;6.74;99.07
7109;BME280;29079;41.930;25.558;2023-04-08T05:42:15;99988.59;;;7.15;96.54
7109;BME280;29079;41.930;25.558;2023-04-08T05:44:49;99990.53;;;7.39;96.33
7109;BME280;29079;41.930;25.558;2023-04-08T05:47:22;99991.88;;;7.06;98.63
7109;BME280;29079;41.930;25.558;2023-04-08T05:49:58;99989.72;;;7.11;98.87
7109;BME280;29079;41.930;25.558;2023-04-08T05:52:31;99992.84;;;7.43;96.50
7109;BME280;29079;41.930;25.558;2023-04-08T05:55:04;99999.53;;;7.23;98.11
7109;BME280;29079;41.930;25.558;2023-04-08T05:57:37;100001.66;;;6.91;99.66
7109;BME280;29079;41.930;25.558;2023-04-08T06:00:14;100000.50;;;7.35;96.71
7109;BME280;29079;41.930;25.558;2023-04-08T06:02:48;99998.06;;;7.32;97.45
7109;BME280;29079;41.930;25.558;2023-04-08T06:05:23;100007.38;;;6.85;100.00
7109;BME280;29079;41.930;25.558;2023-04-08T06:07:56;100007.34;;;6.99;99.81
7109;BME280;29079;41.930;25.558;2023-04-08T06:10:29;100006.34;;;7.40;97.41
7109;BME280;29079;41.930;25.558;2023-04-08T06:13:04;100005.31;;;7.56;96.39
7109;BME280;29079;41.930;25.558;2023-04-08T06:15:37;100010.63;;;7.81;92.71
7109;BME280;29079;41.930;25.558;2023-04-08T06:18:10;100007.81;;;7.31;97.47
7109;BME280;29079;41.930;25.558;2023-04-08T06:20:44;100014.13;;;7.03;100.00
7109;BME280;29079;41.930;25.558;2023-04-08T06:23:18;100012.22;;;7.05;100.00
7109;BME280;29079;41.930;25.558;2023-04-08T06:25:52;100011.84;;;7.24;96.97
7109;BME280;29079;41.930;25.558;2023-04-08T06:28:27;100011.25;;;7.98;91.08
7109;BME280;29079;41.930;25.558;2023-04-08T06:31:01;100017.63;;;7.95;93.24
7109;BME280;29079;41.930;25.558;2023-04-08T06:33:34;100006.16;;;7.95;94.40
7109;BME280;29079;41.930;25.558;2023-04-08T06:36:08;100007.75;;;7.59;97.61
7109;BME280;29079;41.930;25.558;2023-04-08T06:38:44;100011.03;;;7.75;97.56
7109;BME280;29079;41.930;25.558;2023-04-08T06:41:17;100014.31;;;7.40;99.27
7109;BME280;29079;41.930;25.558;2023-04-08T06:43:50;100006.03;;;7.45;99.60
7109;BME280;29079;41.930;25.558;2023-04-08T06:46:23;100008.34;;;8.14;93.94
7109;BME280;29079;41.930;25.558;2023-04-08T06:48:57;100008.63;;;8.35;93.70
7109;BME280;29079;41.930;25.558;2023-04-08T06:51:32;100003.81;;;8.03;95.08
7109;BME280;29079;41.930;25.558;2023-04-08T06:54:05;100014.09;;;8.21;92.50
7109;BME280;29079;41.930;25.558;2023-04-08T06:56:42;100013.94;;;8.48;92.86
7109;BME280;29079;41.930;25.558;2023-04-08T06:59:15;100017.84;;;8.42;92.52
7109;BME280;29079;41.930;25.558;2023-04-08T07:01:48;100012.66;;;8.41;93.07
7109;BME280;29079;41.930;25.558;2023-04-08T07:04:22;100011.28;;;8.48;92.36
7109;BME280;29079;41.930;25.558;2023-04-08T07:06:56;100021.91;;;8.48;90.06
7109;BME280;29079;41.930;25.558;2023-04-08T07:09:30;100025.00;;;8.42;93.02
7109;BME280;29079;41.930;25.558;2023-04-08T07:12:04;100027.28;;;8.72;90.19
7109;BME280;29079;41.930;25.558;2023-04-08T07:14:37;100029.91;;;8.48;91.85
7109;BME280;29079;41.930;25.558;2023-04-08T07:17:10;100031.66;;;8.73;89.12
7109;BME280;29079;41.930;25.558;2023-04-08T07:19:44;100031.41;;;8.76;91.58
7109;BME280;29079;41.930;25.558;2023-04-08T07:22:18;100031.03;;;8.57;93.15
7109;BME280;29079;41.930;25.558;2023-04-08T07:24:51;100030.19;;;8.43;92.67
7109;BME280;29079;41.930;25.558;2023-04-08T07:27:25;100030.53;;;8.76;92.26
7109;BME280;29079;41.930;25.558;2023-04-08T07:29:58;100029.78;;;8.86;87.71
7109;BME280;29079;41.930;25.558;2023-04-08T07:32:32;100035.41;;;9.06;90.10
7109;BME280;29079;41.930;25.558;2023-04-08T07:35:05;100030.34;;;8.79;88.33
7109;BME280;29079;41.930;25.558;2023-04-08T07:37:40;100030.09;;;9.06;89.42
7109;BME280;29079;41.930;25.558;2023-04-08T07:40:13;100027.91;;;9.00;89.58
7109;BME280;29079;41.930;25.558;2023-04-08T07:42:47;100030.72;;;9.10;89.53
7109;BME280;29079;41.930;25.558;2023-04-08T07:45:20;100015.22;;;9.39;87.18
7109;BME280;29079;41.930;25.558;2023-04-08T07:47:53;100025.81;;;9.28;86.66
7109;BME280;29079;41.930;25.558;2023-04-08T07:50:26;100025.25;;;9.00;88.45
7109;BME280;29079;41.930;25.558;2023-04-08T07:53:01;100023.81;;;9.07;87.75
7109;BME280;29079;41.930;25.558;2023-04-08T07:55:34;100012.47;;;9.16;87.15
7109;BME280;29079;41.930;25.558;2023-04-08T07:58:07;100013.03;;;9.33;86.34
7109;BME280;29079;41.930;25.558;2023-04-08T08:00:40;100015.41;;;9.24;86.42
7109;BME280;29079;41.930;25.558;2023-04-08T08:03:13;100012.31;;;9.42;85.82
7109;BME280;29079;41.930;25.558;2023-04-08T08:05:46;100012.97;;;9.68;85.58
7109;BME280;29079;41.930;25.558;2023-04-08T08:08:21;100008.91;;;9.98;84.02
7109;BME280;29079;41.930;25.558;2023-04-08T08:10:55;100007.44;;;9.94;83.93
7109;BME280;29079;41.930;25.558;2023-04-08T08:13:29;100009.03;;;10.08;80.36
7109;BME280;29079;41.930;25.558;2023-04-08T08:16:03;100006.84;;;9.90;83.37
7109;BME280;29079;41.930;25.558;2023-04-08T08:18:40;100006.69;;;10.15;81.88
7109;BME280;29079;41.930;25.558;2023-04-08T08:21:13;100004.53;;;10.31;80.90
7109;BME280;29079;41.930;25.558;2023-04-08T08:23:48;100005.16;;;10.01;80.31
7109;BME280;29079;41.930;25.558;2023-04-08T08:26:22;100000.38;;;9.93;80.40
7109;BME280;29079;41.930;25.558;2023-04-08T08:28:55;99990.31;;;10.31;78.39
7109;BME280;29079;41.930;25.558;2023-04-08T08:31:28;99998.19;;;10.66;77.96
7109;BME280;29079;41.930;25.558;2023-04-08T08:34:02;99992.78;;;10.77;76.38
7109;BME280;29079;41.930;25.558;2023-04-08T08:36:35;99995.97;;;10.71;76.19
7109;BME280;29079;41.930;25.558;2023-04-08T08:39:10;99984.03;;;10.54;76.76
7109;BME280;29079;41.930;25.558;2023-04-08T08:41:43;99984.28;;;10.40;77.19
7109;BME280;29079;41.930;25.558;2023-04-08T08:44:17;99988.22;;;10.57;77.51
7109;BME280;29079;41.930;25.558;2023-04-08T08:46:50;99985.75;;;10.88;76.29
7109;BME280;29079;41.930;25.558;2023-04-08T08:49:24;99981.72;;;11.14;75.14
7109;BME280;29079;41.930;25.558;2023-04-08T08:51:58;99984.91;;;11.29;75.10
7109;BME280;29079;41.930;25.558;2023-04-08T08:54:33;99982.44;;;11.38;74.01
7109;BME280;29079;41.930;25.558;2023-04-08T08:57:15;99976.34;;;11.26;72.83
7109;BME280;29079;41.930;25.558;2023-04-08T08:59:48;99986.78;;;10.96;74.30
7109;BME280;29079;41.930;25.558;2023-04-08T09:02:22;99982.81;;;11.12;75.06
7109;BME280;29079;41.930;25.558;2023-04-08T09:04:57;99984.06;;;11.50;73.91
7109;BME280;29079;41.930;25.558;2023-04-08T09:07:31;99980.56;;;11.71;73.51
7109;BME280;29079;41.930;25.558;2023-04-08T09:10:25;99978.28;;;11.45;73.42
7109;BME280;29079;41.930;25.558;2023-04-08T09:13:01;99981.16;;;11.53;73.92
7109;BME280;29079;41.930;25.558;2023-04-08T09:15:35;99983.56;;;11.87;72.83
7109;BME280;29079;41.930;25.558;2023-04-08T09:18:15;99981.78;;;11.66;72.80
7109;BME280;29079;41.930;25.558;2023-04-08T09:20:53;99982.50;;;11.68;72.69
7109;BME280;29079;41.930;25.558;2023-04-08T09:23:39;99982.94;;;11.95;71.87
7109;BME280;29079;41.930;25.558;2023-04-08T09:26:15;99982.78;;;11.96;71.35
7109;BME280;29079;41.930;25.558;2023-04-08T09:28:59;99978.66;;;11.61;71.51
7109;BME280;29079;41.930;25.558;2023-04-08T09:31:52;99979.84;;;11.47;72.42
7109;BME280;29079;41.930;25.558;2023-04-08T09:34:26;99979.34;;;11.84;71.16
7109;BME280;29079;41.930;25.558;2023-04-08T09:37:00;99974.78;;;11.96;70.00
7109;BME280;29079;41.930;25.558;2023-04-08T09:39:33;99971.03;;;11.88;69.65
7109;BME280;29079;41.930;25.558;2023-04-08T09:42:07;99977.75;;;12.03;69.26
7109;BME280;29079;41.930;25.558;2023-04-08T09:44:43;99971.44;;;11.83;69.08
7109;BME280;29079;41.930;25.558;2023-04-08T09:47:18;99975.56;;;11.87;67.62
7109;BME280;29079;41.930;25.558;2023-04-08T09:49:54;99974.31;;;11.91;67.35
7109;BME280;29079;41.930;25.558;2023-04-08T09:52:29;99965.69;;;12.09;64.16
7109;BME280;29079;41.930;25.558;2023-04-08T09:55:02;99974.59;;;12.19;62.65
7109;BME280;29079;41.930;25.558;2023-04-08T09:57:39;99972.72;;;12.10;63.74
7109;BME280;29079;41.930;25.558;2023-04-08T10:00:14;99972.56;;;12.52;61.71
7109;BME280;29079;41.930;25.558;2023-04-08T10:02:50;99965.69;;;12.88;61.75
7109;BME280;29079;41.930;25.558;2023-04-08T10:05:27;99967.50;;;12.88;62.20
7109;BME280;29079;41.930;25.558;2023-04-08T10:08:01;99972.41;;;12.63;62.43
7109;BME280;29079;41.930;25.558;2023-04-08T10:10:37;99969.03;;;12.42;61.57
7109;BME280;29079;41.930;25.558;2023-04-08T10:13:13;99968.06;;;12.62;61.65
7109;BME280;29079;41.930;25.558;2023-04-08T10:15:47;99964.69;;;12.50;61.86
7109;BME280;29079;41.930;25.558;2023-04-08T10:18:30;99962.66;;;12.33;61.17
7109;BME280;29079;41.930;25.558;2023-04-08T10:21:04;99964.38;;;12.63;59.45
7109;BME280;29079;41.930;25.558;2023-04-08T10:23:58;99958.06;;;12.74;59.83
7109;BME280;29079;41.930;25.558;2023-04-08T10:26:37;99930.84;;;12.69;59.77
7109;BME280;29079;41.930;25.558;2023-04-08T10:32:07;99946.38;;;12.95;59.01
7109;BME280;29079;41.930;25.558;2023-04-08T10:34:50;99936.78;;;13.12;57.94
7109;BME280;29079;41.930;25.558;2023-04-08T10:37:23;99938.34;;;13.14;57.45
7109;BME280;29079;41.930;25.558;2023-04-08T10:39:56;99929.56;;;13.22;57.46
7109;BME280;29079;41.930;25.558;2023-04-08T10:42:30;99931.41;;;13.12;56.33
7109;BME280;29079;41.930;25.558;2023-04-08T10:45:03;99925.22;;;13.01;56.86
7109;BME280;29079;41.930;25.558;2023-04-08T10:47:37;99913.09;;;12.97;56.65
7109;BME280;29079;41.930;25.558;2023-04-08T10:50:11;99927.47;;;12.96;55.01
7109;BME280;29079;41.930;25.558;2023-04-08T10:52:45;99919.44;;;13.06;55.31
7109;BME280;29079;41.930;25.558;2023-04-08T10:55:21;99922.69;;;12.80;56.15
7109;BME280;29079;41.930;25.558;2023-04-08T10:57:55;99919.59;;;12.95;56.49
7109;BME280;29079;41.930;25.558;2023-04-08T11:00:38;99914.75;;;13.18;55.61
7109;BME280;29079;41.930;25.558;2023-04-08T11:03:13;99911.66;;;13.22;56.13
7109;BME280;29079;41.930;25.558;2023-04-08T11:05:46;99908.38;;;13.29;56.12
7109;BME280;29079;41.930;25.558;2023-04-08T11:08:26;99904.44;;;13.33;55.66
7109;BME280;29079;41.930;25.558;2023-04-08T11:10:59;99896.38;;;13.33;55.39
7109;BME280;29079;41.930;25.558;2023-04-08T11:13:34;99894.41;;;13.45;55.18
7109;BME280;29079;41.930;25.558;2023-04-08T11:16:08;99889.38;;;13.22;56.07
7109;BME280;29079;41.930;25.558;2023-04-08T11:18:50;99887.44;;;13.14;56.52
7109;BME280;29079;41.930;25.558;2023-04-08T11:21:24;99888.66;;;13.20;56.35
7109;BME280;29079;41.930;25.558;2023-04-08T11:24:00;99880.94;;;13.64;55.47
7109;BME280;29079;41.930;25.558;2023-04-08T11:26:33;99883.94;;;13.89;55.63
7109;BME280;29079;41.930;25.558;2023-04-08T11:29:08;99882.81;;;14.09;53.96
7109;BME280;29079;41.930;25.558;2023-04-08T11:31:43;99887.47;;;13.52;55.56
7109;BME280;29079;41.930;25.558;2023-04-08T11:34:22;99882.34;;;13.68;55.09
7109;BME280;29079;41.930;25.558;2023-04-08T11:36:56;99881.44;;;13.78;55.10
7109;BME280;29079;41.930;25.558;2023-04-08T11:39:30;99880.50;;;13.97;54.75
7109;BME280;29079;41.930;25.558;2023-04-08T11:42:03;99868.94;;;14.14;54.93
7109;BME280;29079;41.930;25.558;2023-04-08T11:44:37;99875.75;;;14.08;55.61
7109;BME280;29079;41.930;25.558;2023-04-08T11:47:10;99871.72;;;14.04;55.55
7109;BME280;29079;41.930;25.558;2023-04-08T11:49:44;99862.94;;;13.84;55.14
7109;BME280;29079;41.930;25.558;2023-04-08T11:52:18;99863.47;;;13.88;53.84
7109;BME280;29079;41.930;25.558;2023-04-08T11:54:51;99851.06;;;13.87;55.40
7109;BME280;29079;41.930;25.558;2023-04-08T11:57:27;99854.25;;;13.72;55.62
7109;BME280;29079;41.930;25.558;2023-04-08T12:00:00;99863.28;;;13.71;55.78
7109;BME280;29079;41.930;25.558;2023-04-08T12:02:34;99856.31;;;13.79;54.61
7109;BME280;29079;41.930;25.558;2023-04-08T12:05:08;99856.78;;;13.74;54.81
7109;BME280;29079;41.930;25.558;2023-04-08T12:07:42;99852.91;;;13.76;54.56
7109;BME280;29079;41.930;25.558;2023-04-08T12:10:16;99851.94;;;13.78;53.92
7109;BME280;29079;41.930;25.558;2023-04-08T12:12:49;99845.81;;;13.85;55.49
7109;BME280;29079;41.930;25.558;2023-04-08T12:15:23;99851.06;;;13.87;54.46
7109;BME280;29079;41.930;25.558;2023-04-08T12:17:56;99848.56;;;13.75;53.79
7109;BME280;29079;41.930;25.558;2023-04-08T12:20:31;99851.75;;;13.89;54.29
7109;BME280;29079;41.930;25.558;2023-04-08T12:23:04;99844.97;;;13.85;52.65
7109;BME280;29079;41.930;25.558;2023-04-08T12:25:38;99846.88;;;13.74;52.67
7109;BME280;29079;41.930;25.558;2023-04-08T12:28:12;99839.25;;;13.80;54.28
7109;BME280;29079;41.930;25.558;2023-04-08T12:30:45;99842.03;;;14.06;52.05
7109;BME280;29079;41.930;25.558;2023-04-08T12:33:18;99835.81;;;14.05;51.48
7109;BME280;29079;41.930;25.558;2023-04-08T12:35:53;99838.28;;;13.99;53.08
7109;BME280;29079;41.930;25.558;2023-04-08T12:38:26;99831.16;;;14.07;52.15
7109;BME280;29079;41.930;25.558;2023-04-08T12:41:01;99828.00;;;14.12;51.39
7109;BME280;29079;41.930;25.558;2023-04-08T12:43:34;99824.50;;;14.12;50.17
7109;BME280;29079;41.930;25.558;2023-04-08T12:46:07;99825.38;;;14.02;51.08
7109;BME280;29079;41.930;25.558;2023-04-08T12:48:39;99828.16;;;14.10;52.23
7109;BME280;29079;41.930;25.558;2023-04-08T12:51:17;99826.09;;;14.04;51.95
7109;BME280;29079;41.930;25.558;2023-04-08T12:53:50;99824.94;;;14.07;53.08
7109;BME280;29079;41.930;25.558;2023-04-08T12:56:23;99818.78;;;13.97;48.91
7109;BME280;29079;41.930;25.558;2023-04-08T12:58:56;99823.31;;;13.96;50.50
7109;BME280;29079;41.930;25.558;2023-04-08T13:01:30;99826.16;;;13.95;48.89
7109;BME280;29079;41.930;25.558;2023-04-08T13:04:03;99812.28;;;13.99;49.67
7109;BME280;29079;41.930;25.558;2023-04-08T13:06:38;99812.69;;;14.04;50.06
7109;BME280;29079;41.930;25.558;2023-04-08T13:09:12;99809.75;;;13.98;50.14
7109;BME280;29079;41.930;25.558;2023-04-08T13:11:49;99802.47;;;13.90;47.80
7109;BME280;29079;41.930;25.558;2023-04-08T13:14:22;99794.94;;;13.75;48.40
7109;BME280;29079;41.930;25.558;2023-04-08T13:16:56;99794.78;;;13.77;48.80
7109;BME280;29079;41.930;25.558;2023-04-08T13:19:29;99786.69;;;13.87;50.44
7109;BME280;29079;41.930;25.558;2023-04-08T13:22:03;99784.22;;;13.93;49.15
7109;BME280;29079;41.930;25.558;2023-04-08T13:24:37;99794.31;;;13.82;47.82
7109;BME280;29079;41.930;25.558;2023-04-08T13:27:10;99784.19;;;13.75;49.23
7109;BME280;29079;41.930;25.558;2023-04-08T13:29:43;99780.06;;;13.81;47.71
7109;BME280;29079;41.930;25.558;2023-04-08T13:32:16;99785.19;;;13.92;51.17
7109;BME280;29079;41.930;25.558;2023-04-08T13:34:49;99785.81;;;13.86;48.39
7109;BME280;29079;41.930;25.558;2023-04-08T13:37:24;99788.81;;;13.83;51.32
7109;BME280;29079;41.930;25.558;2023-04-08T13:39:58;99782.75;;;13.99;48.51
7109;BME280;29079;41.930;25.558;2023-04-08T13:42:31;99779.78;;;13.84;51.38